Time;durP1;ratioP1;P1;durP2;ratioP2;P2;SDS_P1;SDS_P2;PMS_P1;PMS_P2;Temp;Humidity;BMP_temperature;BMP_pressure;BME280_temperature;BME280_humidity;BME280_pressure;Samples;Min_cycle;Max_cycle;Signal;HPM_P1;HPM_P2
2023/10/01 00:04:07;;;;;;;2.92;1.35;;;;;;;11.44;100.00;99294.88;15290443;19;20539;-54
2023/10/01 00:09:35;;;;;;;3.42;1.58;;;;;;;11.44;100.00;99292.19;15292784;19;20018;-55
2023/10/01 00:15:00;;;;;;;4.72;1.80;;;;;;;11.47;100.00;99297.28;15290230;19;20023;-55
2023/10/01 00:20:27;;;;;;;6.55;1.60;;;;;;;11.45;100.00;99288.50;15290561;19;20007;-53
2023/10/01 00:25:57;;;;;;;3.55;1.45;;;;;;;11.44;100.00;99276.84;15290192;19;20010;-54
2023/10/01 00:31:22;;;;;;;4.53;1.70;;;;;;;11.43;100.00;99282.38;15291125;19;20014;-51
2023/10/01 00:36:49;;;;;;;4.22;1.67;;;;;;;11.45;100.00;99291.19;15289129;19;20085;-55
2023/10/01 00:42:16;;;;;;;3.00;1.50;;;;;;;11.44;100.00;99278.69;15290798;19;20591;-54
2023/10/01 00:47:41;;;;;;;3.85;1.60;;;;;;;11.41;100.00;99272.59;15285316;19;20023;-52
2023/10/01 00:53:06;;;;;;;5.35;1.90;;;;;;;11.40;100.00;99273.56;15288429;19;20041;-53
2023/10/01 00:58:33;;;;;;;4.18;1.70;;;;;;;11.39;100.00;99284.53;15291808;19;20524;-54
2023/10/01 01:03:59;;;;;;;4.35;1.50;;;;;;;11.33;100.00;99288.66;15291009;19;20037;-55
2023/10/01 01:09:24;;;;;;;4.47;1.85;;;;;;;11.30;100.00;99278.16;15285246;19;20370;-53
2023/10/01 01:14:54;;;;;;;3.28;1.60;;;;;;;11.25;100.00;99266.94;15255449;19;20023;-53
2023/10/01 01:20:19;;;;;;;4.57;1.73;;;;;;;11.22;100.00;99246.50;15287570;19;20022;-51
2023/10/01 01:25:49;;;;;;;2.55;1.40;;;;;;;11.20;100.00;99247.66;15281940;19;20022;-53
2023/10/01 01:31:16;;;;;;;3.88;1.60;;;;;;;11.18;100.00;99250.47;15283437;19;20014;-54
2023/10/01 01:36:40;;;;;;;2.67;1.48;;;;;;;11.19;100.00;99254.03;15282828;19;20025;-55
2023/10/01 01:42:08;;;;;;;7.20;1.77;;;;;;;11.19;100.00;99257.56;15289113;19;20042;-54
2023/10/01 01:47:33;;;;;;;3.67;1.70;;;;;;;11.19;100.00;99248.63;15282427;19;20015;-55
2023/10/01 01:53:04;;;;;;;3.13;1.52;;;;;;;11.20;100.00;99261.13;15286256;19;20093;-55
2023/10/01 01:58:32;;;;;;;5.07;1.67;;;;;;;11.19;100.00;99257.56;15285732;19;20017;-52
2023/10/01 02:04:00;;;;;;;2.90;1.60;;;;;;;11.22;100.00;99259.16;15284325;19;20629;-51
2023/10/01 02:09:26;;;;;;;3.97;1.60;;;;;;;11.22;100.00;99243.81;15284574;19;20014;-52
2023/10/01 02:14:57;;;;;;;2.70;1.45;;;;;;;11.23;100.00;99225.78;15281387;19;20023;-52
2023/10/01 02:20:27;;;;;;;4.05;1.58;;;;;;;11.23;100.00;99223.94;15282748;19;20014;-53
2023/10/01 02:25:52;;;;;;;3.55;1.40;;;;;;;11.24;100.00;99227.47;15281938;19;20355;-56
2023/10/01 02:31:22;;;;;;;2.38;1.40;;;;;;;11.25;100.00;99215.69;15281278;19;20025;-51
2023/10/01 02:36:49;;;;;;;3.97;1.48;;;;;;;11.26;100.00;99217.38;15279765;19;20017;-55
2023/10/01 02:42:21;;;;;;;2.95;1.58;;;;;;;11.25;100.00;99234.56;15280497;19;20014;-54
2023/10/01 02:48:13;;;;;;;3.95;1.50;;;;;;;11.25;100.00;99231.88;15275637;19;20786;-54
2023/10/01 02:53:42;;;;;;;3.22;1.50;;;;;;;11.25;100.00;99240.81;15280306;19;20018;-55
2023/10/01 02:59:13;;;;;;;3.47;1.80;;;;;;;11.27;100.00;99227.19;15279243;19;20077;-54
2023/10/01 03:04:41;;;;;;;3.75;1.60;;;;;;;11.25;100.00;99202.19;15278195;19;20422;-51
2023/10/01 03:10:12;;;;;;;3.05;1.80;;;;;;;11.22;100.00;99200.66;15278099;19;20358;-53
2023/10/01 03:15:41;;;;;;;4.88;1.63;;;;;;;11.18;100.00;99228.91;15275307;19;20396;-55
2023/10/01 03:21:19;;;;;;;4.90;1.58;;;;;;;11.21;100.00;99227.78;15282190;19;20022;-52
2023/10/01 03:26:44;;;;;;;3.33;1.52;;;;;;;11.20;100.00;99231.47;15276536;19;20019;-54
2023/10/01 03:38:09;;;;;;;4.55;1.60;;;;;;;11.21;100.00;99243.97;15289545;19;20074;-51
2023/10/01 03:43:35;;;;;;;3.25;1.65;;;;;;;11.21;100.00;99239.41;15295436;19;20021;-53
2023/10/01 03:49:03;;;;;;;2.70;1.50;;;;;;;11.22;100.00;99229.47;15291875;19;20007;-51
2023/10/01 03:54:52;;;;;;;4.75;1.40;;;;;;;11.20;100.00;99231.47;15292798;19;20028;-53
2023/10/01 04:00:29;;;;;;;3.10;1.52;;;;;;;11.19;100.00;99224.38;15295532;19;20074;-53
2023/10/01 04:05:56;;;;;;;3.58;1.70;;;;;;;11.19;100.00;99224.38;15290512;19;20018;-50
2023/10/01 04:11:41;;;;;;;4.13;1.70;;;;;;;11.20;100.00;99223.38;15293354;19;20412;-51
2023/10/01 04:17:12;;;;;;;3.80;1.75;;;;;;;11.22;100.00;99234.88;15293361;19;20019;-52
2023/10/01 04:22:40;;;;;;;3.17;1.50;;;;;;;11.22;100.00;99233.00;15295548;19;20479;-58
2023/10/01 04:28:08;;;;;;;2.28;1.38;;;;;;;11.26;100.00;99230.88;15287096;19;20014;-53
2023/10/01 04:33:34;;;;;;;3.60;1.45;;;;;;;11.27;100.00;99227.19;15292545;19;20015;-53
2023/10/01 04:39:00;;;;;;;2.83;1.50;;;;;;;11.31;100.00;99236.69;15284743;19;20391;-53
2023/10/01 04:44:29;;;;;;;3.40;1.65;;;;;;;11.32;100.00;99224.91;15289793;19;20014;-51
2023/10/01 04:49:56;;;;;;;3.05;1.50;;;;;;;11.32;100.00;99213.25;15290234;19;20023;-51
2023/10/01 04:55:22;;;;;;;2.92;1.60;;;;;;;11.33;100.00;99232.00;15288288;19;20010;-53
2023/10/01 05:00:50;;;;;;;2.85;1.30;;;;;;;11.34;100.00;99233.72;15291327;19;20470;-55
2023/10/01 05:06:19;;;;;;;3.45;1.52;;;;;;;11.37;100.00;99236.09;15286586;19;20011;-52
2023/10/01 05:11:45;;;;;;;3.47;1.25;;;;;;;11.38;100.00;99245.06;15282495;19;20018;-55
2023/10/01 05:17:13;;;;;;;3.10;1.40;;;;;;;11.39;100.00;99247.59;15284005;19;20491;-55
2023/10/01 05:22:46;;;;;;;3.63;1.48;;;;;;;11.41;100.00;99244.75;15290557;19;20078;-54
2023/10/01 05:28:23;;;;;;;2.85;1.45;;;;;;;11.45;100.00;99253.41;15284699;19;20359;-51
2023/10/01 05:33:52;;;;;;;2.92;1.50;;;;;;;11.46;100.00;99258.66;15282427;19;20488;-54
2023/10/01 05:39:24;;;;;;;3.35;1.60;;;;;;;11.49;100.00;99258.38;15281207;19;20090;-54
2023/10/01 05:44:50;;;;;;;6.28;1.70;;;;;;;11.53;100.00;99258.91;15283068;19;20010;-52
2023/10/01 05:50:18;;;;;;;2.88;1.40;;;;;;;11.56;100.00;99261.34;15284507;19;20021;-53
2023/10/01 05:55:46;;;;;;;2.83;1.60;;;;;;;11.59;100.00;99263.72;15282607;19;20098;-55
2023/10/01 06:01:16;;;;;;;2.83;1.65;;;;;;;11.64;100.00;99276.78;15286160;19;20482;-53
2023/10/01 06:06:46;;;;;;;4.22;1.65;;;;;;;11.68;100.00;99270.97;15277519;19;20006;-52
2023/10/01 06:12:17;;;;;;;2.85;1.52;;;;;;;11.75;100.00;99273.91;15279729;19;20078;-51
2023/10/01 06:17:43;;;;;;;3.92;1.50;;;;;;;11.79;100.00;99269.06;15275169;19;20385;-56
2023/10/01 06:23:10;;;;;;;3.00;1.60;;;;;;;11.86;100.00;99265.63;15285108;19;20081;-55
2023/10/01 06:28:35;;;;;;;2.95;1.58;;;;;;;11.94;100.00;99266.72;15286552;19;20501;-56
2023/10/01 06:33:59;;;;;;;2.38;1.30;;;;;;;11.99;100.00;99259.91;15283611;19;20022;-56
2023/10/01 06:39:35;;;;;;;3.15;1.67;;;;;;;12.05;100.00;99265.72;15283890;19;20347;-57
2023/10/01 06:45:00;;;;;;;3.08;1.60;;;;;;;12.07;100.00;99267.25;15277904;19;20014;-51
2023/10/01 06:50:24;;;;;;;3.17;1.45;;;;;;;12.12;100.00;99262.25;15280265;19;20037;-52
2023/10/01 06:55:52;;;;;;;2.75;1.35;;;;;;;12.25;100.00;99261.03;15280108;19;20366;-50
2023/10/01 07:06:55;;;;;;;3.83;1.55;;;;;;;12.42;100.00;99270.16;15285379;19;20078;-51
2023/10/01 07:12:23;;;;;;;3.03;1.60;;;;;;;12.49;100.00;99264.00;15296146;19;20465;-50
2023/10/01 07:17:51;;;;;;;2.80;1.50;;;;;;;12.67;100.00;99276.69;15287406;19;20035;-52
2023/10/01 07:23:18;;;;;;;2.78;1.50;;;;;;;12.89;100.00;99272.66;15298854;19;20358;-53
2023/10/01 07:28:55;;;;;;;4.00;1.50;;;;;;;13.08;100.00;99265.41;15298731;19;20021;-53
2023/10/01 07:34:20;;;;;;;3.05;1.60;;;;;;;13.25;100.00;99269.91;15294420;19;20085;-53
2023/10/01 07:39:52;;;;;;;2.72;1.50;;;;;;;13.40;100.00;99259.41;15294250;19;20028;-52
2023/10/01 07:45:19;;;;;;;4.20;1.70;;;;;;;13.60;100.00;99261.03;15296227;19;20014;-50
2023/10/01 07:50:44;;;;;;;4.82;1.52;;;;;;;13.74;100.00;99265.88;15268292;19;20019;-52
2023/10/01 07:56:15;;;;;;;2.75;1.58;;;;;;;13.99;100.00;99261.41;15293447;19;20467;-54
2023/10/01 08:01:45;;;;;;;2.55;1.52;;;;;;;14.18;100.00;99268.44;15299038;19;20025;-51
2023/10/01 08:07:15;;;;;;;2.30;1.50;;;;;;;14.35;100.00;99268.50;15292285;19;20014;-52
2023/10/01 08:18:34;;;;;;;3.08;1.73;;;;;;;14.68;100.00;99256.91;15289559;19;20014;-53
2023/10/01 08:23:59;;;;;;;2.53;1.50;;;;;;;14.84;100.00;99256.06;15285044;19;20015;-50
2023/10/01 08:29:28;;;;;;;2.35;1.70;;;;;;;14.98;100.00;99258.13;15292718;19;20090;-54
2023/10/01 08:35:06;;;;;;;3.60;1.60;;;;;;;15.14;100.00;99256.41;15290719;19;20035;-53
2023/10/01 08:40:41;;;;;;;3.75;1.80;;;;;;;15.26;100.00;99246.91;15283185;19;20078;-52
2023/10/01 08:46:18;;;;;;;3.05;1.95;;;;;;;15.42;100.00;99246.03;15280084;19;20503;-53
2023/10/01 08:51:47;;;;;;;3.47;1.90;;;;;;;15.62;100.00;99246.50;15285020;19;20015;-51
2023/10/01 08:57:17;;;;;;;3.80;2.00;;;;;;;15.79;100.00;99241.84;15283581;19;20014;-51
2023/10/01 09:02:41;;;;;;;3.70;2.15;;;;;;;16.01;100.00;99251.16;15295616;19;20024;-52
2023/10/01 09:08:26;;;;;;;3.50;2.00;;;;;;;16.36;100.00;99249.97;15290241;19;20466;-53
2023/10/01 09:14:14;;;;;;;4.00;2.20;;;;;;;16.56;100.00;99240.31;15290361;19;20022;-52
2023/10/01 09:19:50;;;;;;;3.92;1.70;;;;;;;16.96;100.00;99231.25;15293189;19;20025;-51
2023/10/01 09:25:33;;;;;;;3.72;2.00;;;;;;;17.13;100.00;99232.78;15287963;19;20018;-51
2023/10/01 09:31:19;;;;;;;3.03;2.00;;;;;;;17.34;100.00;99225.81;15289647;19;20011;-51
2023/10/01 09:36:45;;;;;;;3.50;2.10;;;;;;;17.52;100.00;99228.16;15288872;19;20019;-52
2023/10/01 09:42:28;;;;;;;3.58;1.98;;;;;;;17.63;100.00;99235.00;15291957;19;20098;-52
2023/10/01 09:47:56;;;;;;;4.05;1.92;;;;;;;17.82;100.00;99231.72;15288958;19;20106;-52
2023/10/01 09:53:31;;;;;;;2.88;1.90;;;;;;;18.02;100.00;99233.91;15286593;19;20483;-53
2023/10/01 09:59:01;;;;;;;3.53;2.30;;;;;;;18.17;100.00;99237.44;15278196;19;20105;-53
2023/10/01 10:04:26;;;;;;;3.13;1.95;;;;;;;18.38;100.00;99219.47;14775307;19;9999855;-53
2023/10/01 10:09:54;;;;;;;3.10;1.98;;;;;;;18.57;100.00;99218.00;15289016;19;20022;-51
2023/10/01 10:15:56;;;;;;;2.85;2.00;;;;;;;18.66;100.00;99201.47;15289361;19;20022;-55
2023/10/01 10:21:22;;;;;;;4.53;2.10;;;;;;;18.70;100.00;99195.44;15289793;19;20020;-52
2023/10/01 10:27:06;;;;;;;2.05;1.65;;;;;;;18.78;100.00;99192.56;15287557;19;20018;-53
2023/10/01 10:32:44;;;;;;;2.78;1.88;;;;;;;18.94;100.00;99193.38;15282588;19;20017;-51
2023/10/01 10:38:09;;;;;;;2.60;1.80;;;;;;;19.14;100.00;99187.22;15285769;19;20040;-54
2023/10/01 10:43:34;;;;;;;2.15;1.60;;;;;;;19.39;98.01;99191.19;15300990;19;20022;-54
2023/10/01 10:49:04;;;;;;;2.67;1.92;;;;;;;19.47;87.62;99192.06;15304394;19;20015;-51
2023/10/01 10:54:45;;;;;;;1.98;1.63;;;;;;;19.66;84.85;99205.03;15300536;19;20025;-51
2023/10/01 11:00:23;;;;;;;2.55;1.92;;;;;;;19.79;87.65;99197.94;15304887;19;20015;-56
2023/10/01 11:05:54;;;;;;;2.00;1.67;;;;;;;19.84;93.81;99198.16;15294316;19;20018;-52
2023/10/01 11:11:24;;;;;;;4.15;1.88;;;;;;;19.92;91.13;99200.78;15301355;19;20078;-54
2023/10/01 11:16:52;;;;;;;2.50;1.67;;;;;;;20.00;87.22;99199.75;15287435;19;20018;-53
2023/10/01 11:22:22;;;;;;;3.17;1.80;;;;;;;20.23;89.38;99184.88;15295551;19;20021;-51
2023/10/01 11:27:48;;;;;;;2.00;1.60;;;;;;;20.48;82.59;99176.97;15288384;19;20022;-52
2023/10/01 11:33:29;;;;;;;1.73;1.60;;;;;;;20.82;56.50;99172.41;15289818;19;20011;-54
2023/10/01 11:38:57;;;;;;;2.33;1.70;;;;;;;21.13;56.47;99162.72;15286397;19;20014;-53
2023/10/01 11:44:32;;;;;;;1.75;1.60;;;;;;;21.14;58.20;99163.56;15295175;19;20017;-48
2023/10/01 11:50:12;;;;;;;2.25;1.92;;;;;;;21.19;60.12;99166.50;15297395;19;20014;-51
2023/10/01 11:55:40;;;;;;;3.20;2.00;;;;;;;21.00;61.73;99157.22;15288933;19;20018;-53
2023/10/01 12:01:04;;;;;;;2.33;1.98;;;;;;;21.21;64.71;99153.44;15294635;19;20577;-52
2023/10/01 12:06:34;;;;;;;2.85;2.10;;;;;;;21.24;62.30;99144.78;15288144;19;20888;-54
2023/10/01 12:12:08;;;;;;;2.38;1.98;;;;;;;21.42;65.64;99140.53;15289567;19;20010;-50
2023/10/01 12:17:33;;;;;;;2.08;1.88;;;;;;;21.46;64.56;99133.56;15287688;19;20078;-51
2023/10/01 12:23:10;;;;;;;2.35;2.00;;;;;;;21.49;64.07;99128.50;15292083;19;20036;-52
2023/10/01 12:28:37;;;;;;;2.70;2.20;;;;;;;21.57;61.18;99119.19;15293422;19;20031;-53
2023/10/01 12:34:02;;;;;;;2.13;1.95;;;;;;;21.80;60.84;99124.22;15289916;19;20028;-49
2023/10/01 12:39:33;;;;;;;2.92;2.45;;;;;;;22.01;56.96;99113.97;15285314;19;20037;-48
2023/10/01 12:45:13;;;;;;;2.42;2.22;;;;;;;22.06;54.43;99105.91;15292965;19;20624;-49
2023/10/01 12:50:59;;;;;;;4.13;2.35;;;;;;;22.24;58.31;99096.09;15294605;19;20093;-49
2023/10/01 12:56:43;;;;;;;2.53;2.30;;;;;;;22.28;53.92;99102.84;15290899;19;20085;-49
2023/10/01 13:02:28;;;;;;;2.47;2.28;;;;;;;22.27;53.83;99093.75;15293336;19;20487;-50
2023/10/01 13:07:56;;;;;;;2.78;2.50;;;;;;;22.30;53.05;99089.72;15285836;19;20478;-52
2023/10/01 13:13:29;;;;;;;2.40;2.20;;;;;;;22.51;55.87;99095.97;15286321;19;20015;-50
2023/10/01 13:18:57;;;;;;;2.97;2.50;;;;;;;22.62;53.81;99093.31;15291338;19;20379;-52
2023/10/01 13:24:21;;;;;;;4.03;2.10;;;;;;;22.51;55.04;99084.97;15289235;19;20028;-49
2023/10/01 13:29:49;;;;;;;2.67;2.30;;;;;;;22.50;54.95;99095.09;15292740;19;20028;-51
2023/10/01 13:35:32;;;;;;;3.00;2.47;;;;;;;22.58;54.58;99094.00;15282463;19;20019;-53
2023/10/01 14:09:46;;;;;;;3.00;2.70;;;;;;;23.52;49.42;99051.84;15288009;19;20029;-50
2023/10/01 14:15:21;;;;;;;2.80;2.40;;;;;;;23.63;49.51;99047.50;15282730;19;20530;-49
2023/10/01 14:20:52;;;;;;;3.80;2.72;;;;;;;23.83;49.18;99031.56;15286102;19;20020;-54
2023/10/01 14:26:26;;;;;;;3.50;2.53;;;;;;;23.81;49.03;99032.88;15282941;19;20014;-51
2023/10/01 14:31:51;;;;;;;3.40;2.90;;;;;;;23.57;50.25;99030.00;15285634;19;20014;-53
2023/10/01 14:37:16;;;;;;;3.53;2.78;;;;;;;23.45;49.66;99018.09;15282943;19;20034;-53
2023/10/01 14:42:43;;;;;;;3.95;2.78;;;;;;;23.51;51.43;99011.66;15288817;19;20006;-48
2023/10/01 14:48:09;;;;;;;3.85;2.85;;;;;;;23.42;50.54;99013.88;15276073;19;20031;-51
2023/10/01 14:53:36;;;;;;;5.30;3.20;;;;;;;23.59;51.90;99014.09;15284909;19;20019;-49
2023/10/01 14:59:05;;;;;;;3.85;2.60;;;;;;;23.64;50.15;99005.13;15280148;19;20014;-49
2023/10/01 15:04:35;;;;;;;2.97;2.70;;;;;;;23.57;51.24;99010.75;15284503;19;20029;-56
2023/10/01 15:10:05;;;;;;;2.70;2.42;;;;;;;23.62;51.46;99008.13;15282489;19;20014;-52
2023/10/01 15:15:41;;;;;;;3.17;2.70;;;;;;;23.66;53.70;99014.84;15277869;19;20078;-51
2023/10/01 15:21:23;;;;;;;3.17;2.55;;;;;;;23.66;52.54;99012.09;15280981;19;20029;-51
2023/10/01 15:26:47;;;;;;;3.20;2.53;;;;;;;23.69;54.24;99000.66;15279219;19;20018;-50
2023/10/01 15:32:17;;;;;;;2.90;2.70;;;;;;;23.80;52.62;99001.75;15296299;19;20340;-52
2023/10/01 15:37:48;;;;;;;3.72;3.03;;;;;;;23.85;53.89;99003.78;15289873;19;20064;-50
2023/10/01 15:43:20;;;;;;;;;;;;;;;23.63;51.99;98996.06;15300321;19;20081;-49
2023/10/01 15:48:51;;;;;;;3.40;3.10;;;;;;;23.52;56.01;98996.84;15297342;19;19922;-54
2023/10/01 15:54:25;;;;;;;;;;;;;;;23.32;54.92;98989.72;15289355;19;20488;-52
2023/10/01 15:59:52;;;;;;;4.30;3.05;;;;;;;23.09;60.41;99006.84;15298501;19;19971;-52
2023/10/01 16:05:31;;;;;;;3.05;2.67;;;;;;;22.81;59.01;99001.88;15289930;19;20019;-52
2023/10/01 16:10:58;;;;;;;4.25;3.15;;;;;;;22.68;60.72;99008.34;15296519;19;20527;-51
2023/10/01 16:16:26;;;;;;;3.95;3.30;;;;;;;22.49;64.32;99010.22;15291923;19;20085;-51
2023/10/01 16:21:54;;;;;;;3.63;2.88;;;;;;;22.22;64.51;99022.25;15296311;19;20014;-50
2023/10/01 16:27:27;;;;;;;4.43;3.35;;;;;;;21.93;68.00;99020.97;15285764;19;20010;-54
2023/10/01 16:32:54;;;;;;;4.35;3.50;;;;;;;21.67;70.77;99025.53;15294878;19;20491;-50
2023/10/01 16:38:22;;;;;;;4.18;3.25;;;;;;;21.42;75.05;99022.66;15289171;19;20034;-51
2023/10/01 16:43:52;;;;;;;5.22;3.60;;;;;;;21.20;78.11;99037.50;15297111;19;20467;-50
2023/10/01 16:49:17;;;;;;;4.45;3.53;;;;;;;20.97;82.57;99037.97;15292352;19;20680;-49
2023/10/01 16:54:47;;;;;;;5.72;4.13;;;;;;;20.64;86.23;99042.41;15291087;19;20021;-52
2023/10/01 17:00:14;;;;;;;4.60;3.63;;;;;;;20.52;91.16;99038.63;15288081;19;20014;-50
2023/10/01 17:05:41;;;;;;;4.57;3.70;;;;;;;20.32;94.50;99046.84;15290031;19;20341;-52
2023/10/01 17:11:08;;;;;;;6.63;3.90;;;;;;;20.20;97.23;99049.34;15294620;19;20018;-50
2023/10/01 17:16:33;;;;;;;5.15;3.70;;;;;;;20.03;99.79;99037.97;15288413;19;20007;-49
2023/10/01 17:21:58;;;;;;;5.40;3.80;;;;;;;19.88;100.00;99045.50;15291811;19;20037;-51
2023/10/01 17:27:28;;;;;;;6.50;4.53;;;;;;;19.62;100.00;99050.66;15283154;19;20089;-50
2023/10/01 17:33:05;;;;;;;5.45;3.78;;;;;;;19.50;100.00;99047.69;15279622;19;20347;-52
2023/10/01 17:38:31;;;;;;;5.47;3.88;;;;;;;19.43;100.00;99045.97;15285498;19;20506;-49
2023/10/01 17:44:03;;;;;;;4.88;4.28;;;;;;;19.33;100.00;99043.59;15291700;19;20020;-50
2023/10/01 17:49:31;;;;;;;5.43;4.15;;;;;;;19.22;100.00;99042.31;15289526;19;20010;-50
2023/10/01 17:54:59;;;;;;;5.85;3.65;;;;;;;19.13;100.00;99040.78;15286300;19;20022;-49
2023/10/01 18:00:34;;;;;;;4.78;3.80;;;;;;;18.99;100.00;99040.72;15289971;19;20037;-50
2023/10/01 18:06:02;;;;;;;4.32;3.72;;;;;;;18.85;100.00;99047.09;15273727;19;20029;-53
2023/10/01 18:11:28;;;;;;;5.10;4.13;;;;;;;18.71;100.00;99057.91;15288787;19;20018;-49
2023/10/01 18:16:55;;;;;;;5.20;3.95;;;;;;;18.64;100.00;99057.00;15284165;19;20025;-52
2023/10/01 18:22:25;;;;;;;5.35;4.00;;;;;;;18.57;100.00;99050.66;15289580;19;20010;-50
2023/10/01 18:27:54;;;;;;;5.10;4.38;;;;;;;18.45;100.00;99045.75;15282745;19;20014;-51
2023/10/01 18:33:22;;;;;;;5.88;4.15;;;;;;;18.36;100.00;99044.22;15287156;19;20012;-51
2023/10/01 18:38:48;;;;;;;4.90;3.92;;;;;;;18.28;100.00;99047.09;15279380;19;20014;-55
2023/10/01 18:44:13;;;;;;;5.70;4.40;;;;;;;18.20;100.00;99050.78;15286144;19;20029;-52
2023/10/01 18:49:41;;;;;;;6.55;4.20;;;;;;;18.09;100.00;99063.03;15283911;19;20033;-52
2023/10/01 18:55:06;;;;;;;4.90;4.07;;;;;;;17.99;100.00;99062.53;15282326;19;20010;-53
2023/10/01 19:00:33;;;;;;;5.22;4.22;;;;;;;17.93;100.00;99071.47;15286413;19;20024;-55
2023/10/01 19:06:04;;;;;;;5.85;4.32;;;;;;;17.83;100.00;99061.69;15298378;19;20081;-54
2023/10/01 19:11:29;;;;;;;4.68;4.18;;;;;;;17.69;100.00;99068.06;15300691;19;20015;-52
2023/10/01 19:16:55;;;;;;;5.70;4.35;;;;;;;17.59;100.00;99067.47;15293623;19;20018;-50
2023/10/01 19:22:24;;;;;;;4.95;4.15;;;;;;;17.48;100.00;99066.13;15301875;19;20082;-53
2023/10/01 19:28:14;;;;;;;4.80;4.18;;;;;;;17.37;100.00;99073.75;15291211;19;20011;-52
2023/10/01 19:33:43;;;;;;;4.82;3.90;;;;;;;17.24;100.00;99068.09;15296787;19;20013;-52
2023/10/01 19:39:26;;;;;;;5.13;4.22;;;;;;;17.10;100.00;99062.47;15288340;19;20018;-50
2023/10/01 19:45:03;;;;;;;4.65;4.13;;;;;;;17.01;100.00;99065.47;15283246;19;20436;-53
2023/10/01 19:50:43;;;;;;;5.90;4.00;;;;;;;16.87;100.00;99057.09;15292809;19;20011;-49
2023/10/01 19:56:12;;;;;;;5.10;4.13;;;;;;;16.75;100.00;99053.97;15289062;19;20017;-52
2023/10/01 20:01:37;;;;;;;5.13;4.05;;;;;;;16.68;100.00;99068.50;15292271;19;20078;-53
2023/10/01 20:07:09;;;;;;;5.68;4.30;;;;;;;16.59;100.00;99065.88;15291484;19;20027;-54
2023/10/01 20:12:39;;;;;;;5.50;4.47;;;;;;;16.51;100.00;99057.78;15286229;19;20029;-51
2023/10/01 20:18:10;;;;;;;5.60;4.65;;;;;;;16.43;100.00;99060.56;15290614;19;20803;-52
2023/10/01 20:23:36;;;;;;;4.95;4.45;;;;;;;16.31;100.00;99063.72;15291812;19;20395;-53
2023/10/01 20:29:04;;;;;;;5.57;4.78;;;;;;;16.24;100.00;99065.50;15294407;19;20018;-49
2023/10/01 20:34:30;;;;;;;5.30;4.40;;;;;;;16.19;100.00;99065.19;15292468;19;20006;-51
2023/10/01 20:40:08;;;;;;;5.63;4.50;;;;;;;16.14;100.00;99067.63;15289913;19;20023;-51
2023/10/01 20:45:36;;;;;;;5.63;4.60;;;;;;;16.05;100.00;99061.38;15284429;19;20024;-50
2023/10/01 20:51:01;;;;;;;5.90;4.30;;;;;;;15.98;100.00;99065.88;15291513;19;20021;-51
2023/10/01 20:56:28;;;;;;;6.03;4.95;;;;;;;15.89;100.00;99069.66;15285132;19;20030;-50
2023/10/01 21:01:59;;;;;;;5.45;4.57;;;;;;;15.78;100.00;99063.56;15287207;19;20019;-50
2023/10/01 21:07:38;;;;;;;5.57;4.60;;;;;;;15.69;100.00;99070.06;15288052;19;20014;-53
2023/10/01 21:13:03;;;;;;;5.00;4.50;;;;;;;15.58;100.00;99071.34;15293802;19;20014;-53
2023/10/01 21:18:35;;;;;;;5.93;5.00;;;;;;;15.49;100.00;99069.66;15281099;19;20018;-50
2023/10/01 21:24:00;;;;;;;5.28;4.53;;;;;;;15.39;100.00;99068.03;15282417;19;20619;-49
2023/10/01 21:29:34;;;;;;;8.18;4.68;;;;;;;15.33;100.00;99060.59;15290860;19;20093;-52
2023/10/01 21:35:02;;;;;;;5.18;4.43;;;;;;;15.29;100.00;99055.69;15288122;19;20025;-49
2023/10/01 21:40:33;;;;;;;5.72;4.60;;;;;;;15.24;100.00;99056.19;15280108;19;20045;-49
2023/10/01 21:46:02;;;;;;;5.75;4.60;;;;;;;15.21;100.00;99051.16;15286170;19;20018;-49
2023/10/01 21:51:30;;;;;;;4.93;4.43;;;;;;;15.18;100.00;99052.31;15284226;19;20015;-48
2023/10/01 21:56:56;;;;;;;5.70;4.60;;;;;;;15.16;100.00;99046.25;15286176;19;20014;-52
2023/10/01 22:02:26;;;;;;;5.60;4.57;;;;;;;15.13;100.00;99053.88;15290633;19;20056;-52
2023/10/01 22:07:54;;;;;;;8.30;5.18;;;;;;;15.12;100.00;99054.88;15283792;19;20010;-51
2023/10/01 22:13:20;;;;;;;5.75;4.38;;;;;;;15.06;100.00;99054.59;15287950;19;20083;-49
2023/10/01 22:18:50;;;;;;;6.55;5.00;;;;;;;15.04;100.00;99051.19;15289394;19;20081;-51
2023/10/01 22:24:19;;;;;;;5.90;4.60;;;;;;;15.00;100.00;99047.13;15281833;19;20018;-51
2023/10/01 22:29:45;;;;;;;5.97;4.90;;;;;;;14.95;100.00;99047.66;15288116;19;20031;-49
2023/10/01 22:35:10;;;;;;;5.80;4.75;;;;;;;14.90;100.00;99041.91;15284686;19;20822;-49
2023/10/01 22:40:53;;;;;;;7.03;5.13;;;;;;;14.82;100.00;99046.50;15283926;19;20021;-49
2023/10/01 22:46:23;;;;;;;7.72;5.10;;;;;;;14.76;100.00;99046.16;15281584;19;20036;-52
2023/10/01 22:51:49;;;;;;;7.15;5.20;;;;;;;14.69;100.00;99044.34;15285189;19;20082;-49
2023/10/01 22:57:17;;;;;;;6.10;5.10;;;;;;;14.62;100.00;99038.72;15281593;19;20113;-51
2023/10/01 23:02:47;;;;;;;5.78;5.18;;;;;;;14.55;100.00;99040.41;15287859;19;20476;-50
2023/10/01 23:08:12;;;;;;;6.60;5.40;;;;;;;14.49;100.00;99048.25;15276713;19;20029;-50
2023/10/01 23:13:53;;;;;;;6.30;5.20;;;;;;;14.41;100.00;99045.50;15276205;19;20021;-52
2023/10/01 23:19:36;;;;;;;7.67;5.13;;;;;;;14.34;100.00;99047.22;15276970;19;20020;-51
2023/10/01 23:25:06;;;;;;;6.05;5.00;;;;;;;14.31;100.00;99044.84;15268645;19;20114;-50
2023/10/01 23:30:40;;;;;;;6.95;5.30;;;;;;;14.27;100.00;99048.94;15282477;19;20019;-52
2023/10/01 23:36:08;;;;;;;6.43;4.88;;;;;;;14.21;100.00;99045.03;15231375;19;20074;-50
2023/10/01 23:41:52;;;;;;;6.28;5.20;;;;;;;14.17;100.00;99040.97;15279458;19;20022;-49
2023/10/01 23:47:28;;;;;;;6.55;5.25;;;;;;;14.08;100.00;99033.84;15280041;19;20102;-51
2023/10/01 23:52:52;;;;;;;6.60;4.80;;;;;;;14.01;100.00;99045.34;15301581;19;20073;-50
2023/10/01 23:58:23;;;;;;;6.30;5.20;;;;;;;13.96;100.00;99030.63;15287198;19;20028;-48
